Estestar — 3ECR8 — position and weather

sailwx.info

Track history (hours):
 
Tides and Currents Weather Stations Pressure Air Temp Water Temp Dewpoint Dewpoint Depression Visibility Wind Speed Wind Dir Waves Ship Positions

Estestar

Last reported at 2017-Feb-25 18:23 UTC. Time now 2017-Feb-25 18:51 UTC.
Position N 44°25' E 037°32'.

Length 133 m; draft 4.6 m.

Type: Cargo ship. MMSI: 371448000.

Date/timePositionNaut miles runAvg speedWind from/ knotsBaromVisibWave heightAir tempDewpointWater temp
2017-Feb-25 18:23N 44°25' E 037°32'1 1.4
2017-Feb-25 17:33N 44°26' E 037°32'1 1.2
2017-Feb-25 16:33N 44°27' E 037°31'121110.5
2017-Feb-25 15:28N 43°27' E 039°56'122135.2
2017-Feb-25 14:34N 44°28' E 037°29'1 0.8
2017-Feb-25 13:34N 44°28' E 037°28'1 1.1
2017-Feb-25 12:34N 44°27' E 037°27'0 0.3
2017-Feb-25 11:34N 44°27' E 037°27'1 0.6
2017-Feb-25 10:34N 44°27' E 037°26'4 4.3
2017-Feb-25 09:34N 44°30' E 037°23'1 0.9
2017-Feb-25 08:33N 44°31' E 037°22'2 1.8
2017-Feb-25 07:33N 44°29' E 037°22'2 1.9
2017-Feb-25 06:33N 44°27' E 037°22'1 0.9
2017-Feb-25 05:31N 44°28' E 037°23'3 1.3
2017-Feb-25 03:19N 44°30' E 037°22'2 2.1
2017-Feb-25 02:24N 44°29' E 037°23'5 5.1
2017-Feb-25 01:29N 44°24' E 037°25'  
Track history (hours):
 
Tides and Currents Weather Stations Pressure Air Temp Water Temp Dewpoint Dewpoint Depression Visibility Wind Speed Wind Dir Waves Ship Positions

Estestar

Last reported at 2017-Feb-25 18:23 UTC. Time now 2017-Feb-25 18:51 UTC.
Position N 44°25' E 037°32'.

Length 133 m; draft 4.6 m.

Type: Cargo ship. MMSI: 371448000.

Date/timePositionNaut miles runAvg speedWind from/ knotsBaromVisibWave heightAir tempDewpointWater temp
2017-Feb-25 18:23N 44°25' E 037°32'1 1.4
2017-Feb-25 17:33N 44°26' E 037°32'1 1.2
2017-Feb-25 16:33N 44°27' E 037°31'121110.5
2017-Feb-25 15:28N 43°27' E 039°56'122135.2
2017-Feb-25 14:34N 44°28' E 037°29'1 0.8
2017-Feb-25 13:34N 44°28' E 037°28'1 1.1
2017-Feb-25 12:34N 44°27' E 037°27'0 0.3
2017-Feb-25 11:34N 44°27' E 037°27'1 0.6
2017-Feb-25 10:34N 44°27' E 037°26'4 4.3
2017-Feb-25 09:34N 44°30' E 037°23'1 0.9
2017-Feb-25 08:33N 44°31' E 037°22'2 1.8
2017-Feb-25 07:33N 44°29' E 037°22'2 1.9
2017-Feb-25 06:33N 44°27' E 037°22'1 0.9
2017-Feb-25 05:31N 44°28' E 037°23'3 1.3
2017-Feb-25 03:19N 44°30' E 037°22'2 2.1
2017-Feb-25 02:24N 44°29' E 037°23'5 5.1
2017-Feb-25 01:29N 44°24' E 037°25'  

Dump ship's entire track history